Terminal Aerodrome Forecast
Issued by NWS

Home | Current Version | Previous Version | Text Only | Print | Product List | Glossary On
Versions: 1 2 3 4 5 6 7 8 9 10 11 12 13 14 15 16 17 18 19 20 21 22 23 24 25 26 27 28 29 30 31 32 33 34 35 36
000
FTPA31 PHFO 160500
TAFMKK
TAF
PHMK 160520Z 1606/1706 04012G22KT P6SM VCSH SCT018 BKN040
      TEMPO 1606/1608 -SHRA BKN018
     FM162000 04015G23KT P6SM VCSH SCT023 BKN040
     FM170500 04012G20KT P6SM VCSH SCT023 BKN040=

USA.gov is the U.S. government's official web portal to all federal, state and local government web resources and services.